createdAt,value
2022-10-08T00:04:42.589Z,9.05
2022-10-08T00:09:47.775Z,9.73
2022-10-08T00:14:51.565Z,8.35
2022-10-08T00:19:57.500Z,8.50
2022-10-08T00:25:02.714Z,12.27
2022-10-08T00:30:07.677Z,6.93
2022-10-08T00:35:11.454Z,7.75
2022-10-08T00:40:16.776Z,10.48
2022-10-08T00:45:20.605Z,8.50
2022-10-08T00:50:30.708Z,12.02
2022-10-08T00:55:38.899Z,12.10
2022-10-08T01:00:46.468Z,7.78
2022-10-08T01:05:56.507Z,10.20
2022-10-08T01:11:07.407Z,9.55
2022-10-08T01:16:21.041Z,7.00
2022-10-08T01:21:28.932Z,7.22
2022-10-08T01:26:51.011Z,7.07
2022-10-08T01:31:58.068Z,8.90
2022-10-08T01:37:02.828Z,9.10
2022-10-08T01:42:09.119Z,6.47
2022-10-08T01:47:19.419Z,10.05
2022-10-08T01:52:25.595Z,9.70
2022-10-08T02:02:34.605Z,10.50
2022-10-08T02:07:41.411Z,10.40
2022-10-08T02:12:45.791Z,7.35
2022-10-08T02:17:57.654Z,11.38
2022-10-08T02:23:04.388Z,8.68
2022-10-08T02:28:12.011Z,11.60
2022-10-08T02:33:20.412Z,8.98
2022-10-08T02:38:27.959Z,9.60
2022-10-08T02:43:33.863Z,11.70
2022-10-08T02:48:42.501Z,10.00
2022-10-08T02:53:48.346Z,8.43
2022-10-08T02:58:52.506Z,7.85
2022-10-08T03:04:02.290Z,8.98
2022-10-08T03:09:07.308Z,11.13
2022-10-08T03:14:14.258Z,12.13
2022-10-08T03:19:20.102Z,8.02
2022-10-08T03:24:23.914Z,12.77
2022-10-08T03:29:27.691Z,9.25
2022-10-08T03:34:32.842Z,8.95
2022-10-08T03:39:36.606Z,14.15
2022-10-08T03:44:40.412Z,9.88
2022-10-08T03:49:45.588Z,9.90
2022-10-08T03:54:49.362Z,11.07
2022-10-08T03:59:53.164Z,9.45
2022-10-08T04:04:58.320Z,11.50
2022-10-08T04:10:02.103Z,9.55
2022-10-08T04:15:06.943Z,10.15
2022-10-08T04:20:12.392Z,12.18
2022-10-08T04:25:16.233Z,15.33
2022-10-08T04:30:20.019Z,13.85
2022-10-08T04:35:25.443Z,14.77
2022-10-08T04:40:29.259Z,12.03
2022-10-08T04:45:33.040Z,13.18
2022-10-08T04:50:38.235Z,11.98
2022-10-08T04:55:42.034Z,10.75
2022-10-08T05:00:45.824Z,13.77
2022-10-08T05:05:50.983Z,9.18
2022-10-08T05:10:54.772Z,12.70
2022-10-08T05:15:58.655Z,18.27
2022-10-08T05:21:09.167Z,12.25
2022-10-08T05:26:15.601Z,14.20
2022-10-08T05:31:19.834Z,13.93
2022-10-08T05:36:26.383Z,13.95
2022-10-08T05:41:31.945Z,13.60
2022-10-08T05:46:37.182Z,13.25
2022-10-08T05:51:42.403Z,13.80
2022-10-08T05:56:46.249Z,11.43
2022-10-08T06:01:50.233Z,10.20
2022-10-08T06:06:55.446Z,10.05
2022-10-08T06:12:00.014Z,17.73
2022-10-08T06:17:03.795Z,9.45
2022-10-08T06:22:08.995Z,10.13
2022-10-08T06:27:12.767Z,12.07
2022-10-08T06:32:16.538Z,8.77
2022-10-08T06:37:21.734Z,11.32
2022-10-08T06:42:25.527Z,11.10
2022-10-08T06:47:29.681Z,12.90
2022-10-08T06:52:34.905Z,17.48
2022-10-08T06:57:38.663Z,9.07
2022-10-08T07:02:42.445Z,12.90
2022-10-08T07:07:47.652Z,13.80
2022-10-08T07:12:51.482Z,10.13
2022-10-08T07:17:55.259Z,13.00
2022-10-08T07:23:00.414Z,11.52
2022-10-08T07:28:04.335Z,10.77
2022-10-08T07:33:08.171Z,9.07
2022-10-08T07:38:13.380Z,10.00
2022-10-08T07:43:19.761Z,14.07
2022-10-08T07:48:24.063Z,10.57
2022-10-08T07:53:29.220Z,12.32
2022-10-08T07:58:32.992Z,8.13
2022-10-08T08:03:37.338Z,13.30
2022-10-08T08:08:43.912Z,13.07
2022-10-08T08:13:47.802Z,10.98
2022-10-08T08:18:53.619Z,13.68
2022-10-08T08:24:00.217Z,18.85
2022-10-08T08:29:05.965Z,14.93
2022-10-08T08:39:18.465Z,11.15
2022-10-08T08:44:23.996Z,11.13
2022-10-08T08:49:30.047Z,7.82
2022-10-08T08:54:35.336Z,10.00
2022-10-08T08:59:43.081Z,8.52
2022-10-08T09:04:48.991Z,8.85
2022-10-08T09:09:55.476Z,8.02
2022-10-08T09:15:01.403Z,7.63
2022-10-08T09:20:05.834Z,11.55
2022-10-08T09:25:16.595Z,11.40
2022-10-08T09:30:36.114Z,9.55
2022-10-08T09:35:45.956Z,5.90
2022-10-08T09:41:03.271Z,8.27
2022-10-08T09:46:12.018Z,9.70
2022-10-08T09:51:17.698Z,8.68
2022-10-08T09:56:28.065Z,6.65
2022-10-08T10:01:32.880Z,9.52
2022-10-08T10:06:39.502Z,11.40
2022-10-08T10:11:48.225Z,6.18
2022-10-08T10:16:57.061Z,8.90
2022-10-08T10:22:04.357Z,6.50
2022-10-08T10:27:12.783Z,12.10
2022-10-08T10:32:21.043Z,6.55
2022-10-08T10:37:34.123Z,6.55
2022-10-08T10:42:42.776Z,8.52
2022-10-08T10:47:46.598Z,6.80
2022-10-08T10:52:55.426Z,5.23
2022-10-08T10:58:11.242Z,7.78
2022-10-08T11:03:20.327Z,5.47
2022-10-08T11:08:32.311Z,7.93
2022-10-08T11:13:47.115Z,6.40
2022-10-08T11:18:53.445Z,7.00
2022-10-08T11:24:12.662Z,5.53
2022-10-08T11:29:22.483Z,10.95
2022-10-08T11:34:29.686Z,7.70
2022-10-08T11:39:40.680Z,9.90
2022-10-08T11:44:45.876Z,12.27
2022-10-08T11:49:55.060Z,5.70
2022-10-08T11:55:01.056Z,6.63
2022-10-08T12:00:08.875Z,7.22
2022-10-08T12:05:21.062Z,5.82
2022-10-08T12:10:31.591Z,8.43
2022-10-08T12:16:10.105Z,6.38
2022-10-08T12:21:50.740Z,4.60
2022-10-08T12:27:22.936Z,6.40
2022-10-08T12:32:29.366Z,3.63
2022-10-08T12:37:45.094Z,7.30
2022-10-08T12:42:49.935Z,9.73
2022-10-08T12:48:00.948Z,6.68
2022-10-08T12:53:05.976Z,7.68
2022-10-08T12:58:15.191Z,6.38
2022-10-08T13:03:21.753Z,7.97
2022-10-08T13:08:30.100Z,14.25
2022-10-08T13:13:36.614Z,11.30
2022-10-08T13:18:43.350Z,8.27
2022-10-08T13:23:47.192Z,6.03
2022-10-08T13:29:00.397Z,14.03
2022-10-08T13:34:06.286Z,7.87
2022-10-08T13:39:20.747Z,11.18
2022-10-08T13:44:24.678Z,7.22
2022-10-08T13:49:30.559Z,10.93
2022-10-08T13:54:36.446Z,9.55
2022-10-08T13:59:43.139Z,9.85
2022-10-08T14:04:48.675Z,6.85
2022-10-08T14:09:53.351Z,10.07
2022-10-08T14:14:57.556Z,9.13
2022-10-08T14:20:02.768Z,8.93
2022-10-08T14:25:08.624Z,13.27
2022-10-08T14:30:13.719Z,7.95
2022-10-08T14:35:19.449Z,12.52
2022-10-08T14:40:23.967Z,5.55
2022-10-08T14:45:27.786Z,9.57
2022-10-08T14:50:32.967Z,11.85
2022-10-08T14:55:54.462Z,6.72
2022-10-08T15:01:01.226Z,7.72
2022-10-08T15:06:06.674Z,11.70
2022-10-08T15:11:10.490Z,7.88
2022-10-08T15:16:14.813Z,12.98
2022-10-08T15:21:20.102Z,11.55
2022-10-08T15:26:23.914Z,14.43
2022-10-08T15:31:28.171Z,13.05
2022-10-08T15:36:36.251Z,9.82
2022-10-08T15:41:42.114Z,10.60
2022-10-08T15:51:50.759Z,13.25
2022-10-08T15:56:54.558Z,17.30
2022-10-08T16:01:58.398Z,17.02
2022-10-08T16:07:03.599Z,13.07
2022-10-08T16:12:07.406Z,16.20
2022-10-08T16:17:11.253Z,18.13
2022-10-08T16:22:16.451Z,25.50
2022-10-08T16:27:20.210Z,13.30
2022-10-08T16:32:23.967Z,12.90
2022-10-08T16:37:29.135Z,14.27
2022-10-08T16:42:32.944Z,20.83
2022-10-08T16:47:36.759Z,14.95
2022-10-08T16:52:41.960Z,20.92
2022-10-08T16:57:51.336Z,19.23
2022-10-08T17:02:55.537Z,16.10
2022-10-08T17:08:00.747Z,12.15
2022-10-08T17:13:04.530Z,28.47
2022-10-08T17:18:08.361Z,19.33
2022-10-08T17:23:13.665Z,28.00
2022-10-08T17:28:17.496Z,24.37
2022-10-08T17:33:21.330Z,30.30
2022-10-08T17:38:26.511Z,17.85
2022-10-08T17:43:30.279Z,34.20
2022-10-08T17:48:34.035Z,34.58
2022-10-08T17:53:39.285Z,35.90
2022-10-08T17:58:43.078Z,38.30
2022-10-08T18:03:51.306Z,34.40
2022-10-08T18:08:58.049Z,38.40
2022-10-08T18:14:02.667Z,33.58
2022-10-08T18:19:08.907Z,35.08
2022-10-08T18:24:14.336Z,34.88
2022-10-08T18:29:18.103Z,28.40
2022-10-08T18:34:21.950Z,42.78
2022-10-08T18:39:28.630Z,42.63
2022-10-08T18:44:32.692Z,37.17
2022-10-08T18:49:37.136Z,41.90
2022-10-08T18:54:42.372Z,43.03
2022-10-08T18:59:46.581Z,41.30
2022-10-08T19:04:50.638Z,44.67
2022-10-08T19:09:55.840Z,53.10
2022-10-08T19:14:59.610Z,50.40
2022-10-08T19:20:03.522Z,35.75
2022-10-08T19:25:09.375Z,23.35
2022-10-08T19:30:14.038Z,42.08
2022-10-08T19:35:17.820Z,46.35
2022-10-08T19:40:22.986Z,48.20
2022-10-08T19:45:26.787Z,48.17
2022-10-08T19:50:30.542Z,38.60
2022-10-08T19:55:38.967Z,25.25
2022-10-08T20:00:42.727Z,36.75
2022-10-08T20:05:46.490Z,38.85
2022-10-08T20:10:51.671Z,44.05
2022-10-08T20:15:55.492Z,31.23
2022-10-08T20:21:03.518Z,20.65
2022-10-08T20:26:15.489Z,39.83
2022-10-08T20:31:20.618Z,44.03
2022-10-08T20:36:25.167Z,40.03
2022-10-08T20:41:31.279Z,38.67
2022-10-08T20:46:36.248Z,42.60
2022-10-08T20:51:40.803Z,41.13
2022-10-08T20:56:46.304Z,35.90
2022-10-08T21:01:51.222Z,38.38
2022-10-08T21:06:55.072Z,52.13
2022-10-08T21:12:00.251Z,46.25
2022-10-08T21:17:04.019Z,40.67
2022-10-08T21:22:07.922Z,35.92
2022-10-08T21:27:13.103Z,40.47
2022-10-08T21:32:16.918Z,47.27
2022-10-08T21:37:20.738Z,27.20
2022-10-08T21:42:25.918Z,31.85
2022-10-08T21:47:29.866Z,38.80
2022-10-08T21:52:33.663Z,28.83
2022-10-08T21:57:38.862Z,31.52
2022-10-08T22:02:42.659Z,31.93
2022-10-08T22:07:46.427Z,34.05
2022-10-08T22:12:51.603Z,34.15
2022-10-08T22:17:55.406Z,27.13
2022-10-08T22:22:59.186Z,34.08
2022-10-08T22:28:04.519Z,25.70
2022-10-08T22:33:08.460Z,31.13
2022-10-08T22:38:12.762Z,27.85
2022-10-08T22:43:18.156Z,32.17
2022-10-08T22:48:22.049Z,28.73
2022-10-08T22:53:25.923Z,29.95
2022-10-08T22:58:31.130Z,25.58
2022-10-08T23:03:35.202Z,29.48
2022-10-08T23:08:39.018Z,25.35
2022-10-08T23:13:45.972Z,24.30
2022-10-08T23:18:54.374Z,32.15
2022-10-08T23:23:58.542Z,30.35
2022-10-08T23:29:04.130Z,30.52
2022-10-08T23:34:08.694Z,27.63
2022-10-08T23:39:15.190Z,31.83
2022-10-08T23:44:20.362Z,20.38
2022-10-08T23:49:24.132Z,23.77
2022-10-08T23:54:28.046Z,42.50
2022-10-08T23:59:33.204Z,60.38
